الصفحة الرئيسية
METAR-TAF:

METAR-TAF

مطار :

مطار شانغهاي بودنغ الدولي

شانغهاي-Pudong, جمهورية الصين الشعبية

دائرة عرض: 31-07N, خط طول: 121-46E, ارتفاع: 4 متر

مراقبة الطقس الحالي

تاريخ ووقت الإصدار 22 دقيقة قبل الساعة 23:30UTC
ريح 8 عقدة من الشرق/الشمال الشرقي, الاتجاه يتراوح بين الشمال و الشرق
درجة الحرارة 20°درجة مئوية
الرطوبة 64%
ضغط 1023 hPa
الرؤية 10 كم أو أكثر
الغيوم لا تقل 1500 م ولا وجود لمزنة ركامية السحاب الأسود

METAR: ZSPD 202330Z 06004MPS 350V080 CAVOK 20/13 Q1023 NOSIG

زمن: 07:52 (23:52 UTC)

توقعات

تاريخ ووقت الإصدار 2ساعات و 41 دقيقة قبل الساعة 21:11UTC
التوقعات صالحة من21 الساعة 00 UTC إلى 21 الساعة 24 UTC
ريح 8 عقدة من الشرق
الرؤية: 6000 متر
غيوم متفرقة على ارتفاع 2000 قدم

TAF: ZSPD 202111Z 2100/2124 09004MPS 6000 SCT020 TX21/2106Z TN15/2121Z

أرصاد الطقس والتوقعات من أكثر من 4000 مطار (تقارير الطقس للمطار METAR والتنبؤ بالطقس بالمطارTAF).

المحطات المتاحة هي النقط الصفراء والحمراء على الخريطة.

حرك المؤشر فوق النقطة لمعرفة اسم المحطة.

ثم انقر لمعرفة أرصاد وتوقعات الطقس.

لتغيير الخارطة: اضغط على الأزرار الخضراء مع رمز الصليب الأسود للتكبير. على الزر الأخضر مع شرطة للتصغير، أو على الأسهم الخضراء للخرائط المجاورة.


METAR-TAF: